Time;durP1;ratioP1;P1;durP2;ratioP2;P2;SDS_P1;SDS_P2;PMS_P1;PMS_P2;Temp;Humidity;BMP_temperature;BMP_pressure;BME280_temperature;BME280_humidity;BME280_pressure;Samples;Min_cycle;Max_cycle;Signal;HPM_P1;HPM_P2
2022/07/24 00:02:20;;;;;;;1999.90;999.90;;;;;;;;;;5136120;27;20410;-76
2022/07/24 00:04:56;;;;;;;1999.90;999.90;;;;;;;;;;5108952;27;20470;-76
2022/07/24 00:07:24;;;;;;;1999.90;999.90;;;;;;;;;;5116089;27;20404;-76
2022/07/24 00:09:52;;;;;;;1999.90;999.90;;;;;;;;;;5134956;27;21542;-77
2022/07/24 00:12:20;;;;;;;1999.90;999.90;;;;;;;;;;5117512;27;20404;-76
2022/07/24 00:14:47;;;;;;;1999.90;999.90;;;;;;;;;;5119033;27;20454;-76
2022/07/24 00:17:17;;;;;;;1999.90;999.90;;;;;;;;;;5138722;27;20407;-76
2022/07/24 00:19:44;;;;;;;1999.90;999.90;;;;;;;;;;5138431;27;20410;-76
2022/07/24 00:22:12;;;;;;;1999.90;999.90;;;;;;;;;;5133091;27;20412;-76
2022/07/24 00:24:40;;;;;;;1999.90;999.90;;;;;;;;;;5137834;27;20391;-76
2022/07/24 00:27:08;;;;;;;1999.90;999.90;;;;;;;;;;5137228;27;21343;-75
2022/07/24 00:29:36;;;;;;;1999.90;999.90;;;;;;;;;;5104742;27;20424;-75
2022/07/24 00:32:03;;;;;;;1999.90;999.90;;;;;;;;;;5116343;27;20839;-75
2022/07/24 00:34:33;;;;;;;1999.90;999.90;;;;;;;;;;5138110;27;20392;-75
2022/07/24 00:37:00;;;;;;;1999.90;999.90;;;;;;;;;;5118170;27;20458;-76
2022/07/24 00:39:28;;;;;;;1999.90;999.90;;;;;;;;;;5117717;27;20384;-76
2022/07/24 00:41:56;;;;;;;1999.90;999.90;;;;;;;;;;5132718;27;20415;-76
2022/07/24 00:44:24;;;;;;;1999.90;999.90;;;;;;;;;;5118405;27;20762;-75
2022/07/24 00:46:52;;;;;;;1999.90;999.90;;;;;;;;;;5134790;27;21734;-75
2022/07/24 00:49:20;;;;;;;1999.90;999.90;;;;;;;;;;5137323;27;20392;-75
2022/07/24 00:51:54;;;;;;;1999.90;999.90;;;;;;;;;;5117565;27;20392;-75
2022/07/24 00:54:23;;;;;;;1999.90;999.90;;;;;;;;;;5132013;27;20400;-75
2022/07/24 00:56:52;;;;;;;1999.90;999.90;;;;;;;;;;5115404;27;21216;-76
2022/07/24 00:59:19;;;;;;;1999.90;999.90;;;;;;;;;;5134939;27;20388;-75
2022/07/24 01:01:47;;;;;;;1999.90;999.90;;;;;;;;;;5132765;27;20400;-76
2022/07/24 01:04:15;;;;;;;1999.90;999.90;;;;;;;;;;5117212;27;20455;-76
2022/07/24 01:06:43;;;;;;;1999.90;999.90;;;;;;;;;;5133387;27;20532;-75
2022/07/24 01:09:13;;;;;;;1999.90;999.90;;;;;;;;;;5117550;27;21046;-75
2022/07/24 01:11:41;;;;;;;1999.90;999.90;;;;;;;;;;5115934;27;20932;-75
2022/07/24 01:14:09;;;;;;;1999.90;999.90;;;;;;;;;;5135440;27;20407;-76
2022/07/24 01:16:37;;;;;;;1999.90;999.90;;;;;;;;;;5135850;27;20521;-76
2022/07/24 01:19:05;;;;;;;1999.90;999.90;;;;;;;;;;5095373;27;20479;-75
2022/07/24 01:21:35;;;;;;;1999.90;999.90;;;;;;;;;;5111290;27;20403;-76
2022/07/24 01:24:03;;;;;;;1999.90;999.90;;;;;;;;;;5136566;27;20405;-75
2022/07/24 01:26:31;;;;;;;1999.90;999.90;;;;;;;;;;5135217;27;20384;-75
2022/07/24 01:28:58;;;;;;;1999.90;999.90;;;;;;;;;;5136368;27;20395;-74
2022/07/24 01:31:26;;;;;;;1999.90;999.90;;;;;;;;;;5117666;27;20932;-75
2022/07/24 01:33:54;;;;;;;1999.90;999.90;;;;;;;;;;5136636;27;20400;-74
2022/07/24 01:36:22;;;;;;;1999.90;999.90;;;;;;;;;;5136130;27;20423;-74
2022/07/24 01:38:51;;;;;;;1999.90;999.90;;;;;;;;;;5138507;27;20850;-76
2022/07/24 01:41:19;;;;;;;1999.90;999.90;;;;;;;;;;5137886;27;20408;-75
2022/07/24 01:43:47;;;;;;;1999.90;999.90;;;;;;;;;;5138091;27;20399;-76
2022/07/24 01:46:15;;;;;;;1999.90;999.90;;;;;;;;;;5135998;27;20395;-75
2022/07/24 01:48:43;;;;;;;1999.90;999.90;;;;;;;;;;5117384;27;21278;-75
2022/07/24 01:51:11;;;;;;;1999.90;999.90;;;;;;;;;;5136389;27;20453;-75
2022/07/24 01:53:39;;;;;;;1999.90;999.90;;;;;;;;;;5131513;27;20382;-75
2022/07/24 01:56:08;;;;;;;1999.90;999.90;;;;;;;;;;5132697;27;20392;-75
2022/07/24 01:58:39;;;;;;;1999.90;999.90;;;;;;;;;;5115240;27;21583;-75
2022/07/24 02:01:07;;;;;;;1999.90;999.90;;;;;;;;;;5132251;27;20414;-76
2022/07/24 02:03:35;;;;;;;1999.90;999.90;;;;;;;;;;5114943;27;20423;-77
2022/07/24 02:06:02;;;;;;;1999.90;999.90;;;;;;;;;;5117010;27;20391;-76
2022/07/24 02:08:30;;;;;;;1999.90;999.90;;;;;;;;;;5134368;27;20884;-75
2022/07/24 02:10:58;;;;;;;1999.90;999.90;;;;;;;;;;5099558;27;20408;-74
2022/07/24 02:13:27;;;;;;;1999.90;999.90;;;;;;;;;;5115983;27;20905;-76
2022/07/24 02:15:56;;;;;;;1999.90;999.90;;;;;;;;;;5116169;27;20384;-75
2022/07/24 02:18:24;;;;;;;1999.90;999.90;;;;;;;;;;5134436;27;21225;-75
2022/07/24 02:20:52;;;;;;;1999.90;999.90;;;;;;;;;;5114234;27;20836;-75
2022/07/24 02:23:20;;;;;;;1999.90;999.90;;;;;;;;;;5115986;27;20419;-75
2022/07/24 02:25:49;;;;;;;1999.90;999.90;;;;;;;;;;5115483;27;20391;-75
2022/07/24 02:28:17;;;;;;;1999.90;999.90;;;;;;;;;;5114527;27;20750;-75
2022/07/24 02:30:47;;;;;;;1999.90;999.90;;;;;;;;;;5115807;27;20512;-75
2022/07/24 02:33:14;;;;;;;1999.90;999.90;;;;;;;;;;5135535;27;20380;-75
2022/07/24 02:35:42;;;;;;;1999.90;999.90;;;;;;;;;;5113189;27;22594;-75
2022/07/24 02:38:10;;;;;;;1999.90;999.90;;;;;;;;;;5115357;27;20392;-75
2022/07/24 02:40:37;;;;;;;1999.90;999.90;;;;;;;;;;5127499;27;20573;-76
2022/07/24 02:43:05;;;;;;;1999.90;999.90;;;;;;;;;;5134500;27;20504;-76
2022/07/24 02:45:33;;;;;;;1999.90;999.90;;;;;;;;;;5096645;27;20404;-75
2022/07/24 02:48:02;;;;;;;1999.90;999.90;;;;;;;;;;5125417;27;20592;-73
2022/07/24 02:50:32;;;;;;;1999.90;999.90;;;;;;;;;;5113697;27;20408;-75
2022/07/24 02:53:00;;;;;;;1999.90;999.90;;;;;;;;;;5136037;27;20888;-75
2022/07/24 02:55:33;;;;;;;1999.90;999.90;;;;;;;;;;5137216;27;20388;-75
2022/07/24 02:58:00;;;;;;;1999.90;999.90;;;;;;;;;;5115404;27;20384;-75
2022/07/24 03:00:28;;;;;;;1999.90;999.90;;;;;;;;;;5130827;27;20404;-74
2022/07/24 03:02:56;;;;;;;1999.90;999.90;;;;;;;;;;5133114;27;20411;-74
2022/07/24 03:05:25;;;;;;;1999.90;999.90;;;;;;;;;;5134085;27;20829;-74
2022/07/24 03:07:54;;;;;;;1999.90;999.90;;;;;;;;;;5131423;27;20425;-76
2022/07/24 03:10:21;;;;;;;1999.90;999.90;;;;;;;;;;5113312;27;20410;-75
2022/07/24 03:12:49;;;;;;;1999.90;999.90;;;;;;;;;;5127097;27;20392;-77
2022/07/24 03:15:18;;;;;;;1999.90;999.90;;;;;;;;;;5118385;27;20384;-75
2022/07/24 03:17:49;;;;;;;1999.90;999.90;;;;;;;;;;5135036;27;20411;-75
2022/07/24 03:20:17;;;;;;;1999.90;999.90;;;;;;;;;;5115713;27;20492;-75
2022/07/24 03:22:47;;;;;;;1999.90;999.90;;;;;;;;;;5131273;27;20403;-74
2022/07/24 03:25:14;;;;;;;1999.90;999.90;;;;;;;;;;5116786;27;20791;-74
2022/07/24 03:27:43;;;;;;;1999.90;999.90;;;;;;;;;;5113479;27;20455;-74
2022/07/24 03:30:11;;;;;;;1999.90;999.90;;;;;;;;;;5109199;27;20491;-75
2022/07/24 03:32:39;;;;;;;1999.90;999.90;;;;;;;;;;5116000;27;20392;-75
2022/07/24 03:35:07;;;;;;;1999.90;999.90;;;;;;;;;;5139026;27;21190;-75
2022/07/24 03:37:35;;;;;;;1999.90;999.90;;;;;;;;;;5137229;27;20469;-75
2022/07/24 03:40:05;;;;;;;1999.90;999.90;;;;;;;;;;5119295;27;20412;-75
2022/07/24 03:42:33;;;;;;;1999.90;999.90;;;;;;;;;;5132251;27;21195;-75
2022/07/24 03:45:01;;;;;;;1999.90;999.90;;;;;;;;;;5121750;27;20462;-75
2022/07/24 03:47:29;;;;;;;1999.90;999.90;;;;;;;;;;5120509;27;20392;-75
2022/07/24 03:49:56;;;;;;;1999.90;999.90;;;;;;;;;;5141315;27;20416;-75
2022/07/24 03:52:25;;;;;;;1999.90;999.90;;;;;;;;;;5102974;27;22955;-76
2022/07/24 03:54:54;;;;;;;1999.90;999.90;;;;;;;;;;5139685;27;20906;-75
2022/07/24 03:57:24;;;;;;;1999.90;999.90;;;;;;;;;;5137959;27;20410;-75
2022/07/24 03:59:52;;;;;;;1999.90;999.90;;;;;;;;;;5102341;27;20897;-75
2022/07/24 04:02:19;;;;;;;1999.90;999.90;;;;;;;;;;5136794;27;20433;-74
2022/07/24 04:04:47;;;;;;;1999.90;999.90;;;;;;;;;;5122698;27;20388;-74
2022/07/24 04:07:15;;;;;;;1999.90;999.90;;;;;;;;;;5137618;27;20396;-75
2022/07/24 04:09:43;;;;;;;1999.90;999.90;;;;;;;;;;5121926;27;20400;-74
2022/07/24 04:12:11;;;;;;;1999.90;999.90;;;;;;;;;;5136631;27;20384;-75
2022/07/24 04:14:40;;;;;;;1999.90;999.90;;;;;;;;;;5139046;27;20416;-75
2022/07/24 04:17:07;;;;;;;1999.90;999.90;;;;;;;;;;5120598;27;21019;-74
2022/07/24 04:19:35;;;;;;;1999.90;999.90;;;;;;;;;;5119339;27;20478;-75
2022/07/24 04:22:03;;;;;;;1999.90;999.90;;;;;;;;;;5100956;27;21626;-75
2022/07/24 04:24:33;;;;;;;1999.90;999.90;;;;;;;;;;5120288;27;20400;-74
2022/07/24 04:27:00;;;;;;;1999.90;999.90;;;;;;;;;;5137825;27;20396;-75
2022/07/24 04:29:28;;;;;;;1999.90;999.90;;;;;;;;;;5138982;27;20558;-75
2022/07/24 04:31:58;;;;;;;1999.90;999.90;;;;;;;;;;5121187;27;20392;-75
2022/07/24 04:34:25;;;;;;;1999.90;999.90;;;;;;;;;;5101294;27;20491;-75
2022/07/24 04:36:53;;;;;;;1999.90;999.90;;;;;;;;;;5120844;27;21106;-75
2022/07/24 04:39:21;;;;;;;1999.90;999.90;;;;;;;;;;5137060;27;20427;-76
2022/07/24 04:41:49;;;;;;;1999.90;999.90;;;;;;;;;;5117582;27;20516;-75
2022/07/24 04:44:16;;;;;;;1999.90;999.90;;;;;;;;;;5118786;27;20392;-75
2022/07/24 04:46:44;;;;;;;1999.90;999.90;;;;;;;;;;5120263;27;21252;-75
2022/07/24 04:49:13;;;;;;;1999.90;999.90;;;;;;;;;;5136135;27;20412;-72
2022/07/24 04:51:41;;;;;;;1999.90;999.90;;;;;;;;;;5099255;27;20394;-72
2022/07/24 04:54:09;;;;;;;1999.90;999.90;;;;;;;;;;5136007;27;20461;-72
2022/07/24 04:56:37;;;;;;;1999.90;999.90;;;;;;;;;;5115658;27;20478;-72
2022/07/24 04:59:05;;;;;;;1999.90;999.90;;;;;;;;;;5134087;27;20415;-73
2022/07/24 05:01:33;;;;;;;1999.90;999.90;;;;;;;;;;5115427;27;20404;-72
2022/07/24 05:04:01;;;;;;;1999.90;999.90;;;;;;;;;;5110861;27;21023;-74
2022/07/24 05:06:30;;;;;;;1999.90;999.90;;;;;;;;;;5131397;27;20552;-74
2022/07/24 05:08:58;;;;;;;1999.90;999.90;;;;;;;;;;5132483;27;20570;-72
2022/07/24 05:11:26;;;;;;;1999.90;999.90;;;;;;;;;;5137039;27;20403;-73
2022/07/24 05:13:54;;;;;;;1999.90;999.90;;;;;;;;;;5116913;27;20455;-73
2022/07/24 05:16:21;;;;;;;1999.90;999.90;;;;;;;;;;5119398;27;20487;-73
2022/07/24 05:18:49;;;;;;;1999.90;999.90;;;;;;;;;;5138759;27;20468;-73
2022/07/24 05:21:17;;;;;;;1999.90;999.90;;;;;;;;;;5132227;27;20399;-74
2022/07/24 05:23:46;;;;;;;1999.90;999.90;;;;;;;;;;5135773;27;20399;-73
2022/07/24 05:26:14;;;;;;;1999.90;999.90;;;;;;;;;;5098362;27;20422;-74
2022/07/24 05:28:42;;;;;;;1999.90;999.90;;;;;;;;;;5116309;27;20747;-74
2022/07/24 05:31:10;;;;;;;1999.90;999.90;;;;;;;;;;5111781;27;20492;-73
2022/07/24 05:33:38;;;;;;;1999.90;999.90;;;;;;;;;;5133017;27;20414;-73
2022/07/24 05:36:06;;;;;;;1999.90;999.90;;;;;;;;;;5113815;27;20388;-72
2022/07/24 05:38:34;;;;;;;1999.90;999.90;;;;;;;;;;5114256;27;20412;-74
2022/07/24 05:41:03;;;;;;;1999.90;999.90;;;;;;;;;;5097518;27;20408;-73
2022/07/24 05:43:31;;;;;;;1999.90;999.90;;;;;;;;;;5112993;27;20395;-73
2022/07/24 05:45:59;;;;;;;1999.90;999.90;;;;;;;;;;5094746;27;20433;-74
2022/07/24 05:48:26;;;;;;;1999.90;999.90;;;;;;;;;;5094604;27;20416;-72
2022/07/24 05:50:54;;;;;;;1999.90;999.90;;;;;;;;;;5115792;27;20482;-74
2022/07/24 05:53:22;;;;;;;1999.90;999.90;;;;;;;;;;5114972;27;20391;-74
2022/07/24 05:55:51;;;;;;;1999.90;999.90;;;;;;;;;;5132999;27;21262;-74
2022/07/24 05:58:20;;;;;;;1999.90;999.90;;;;;;;;;;5134578;27;20399;-73
2022/07/24 06:00:48;;;;;;;1999.90;999.90;;;;;;;;;;5114066;27;20409;-73
2022/07/24 06:03:15;;;;;;;1999.90;999.90;;;;;;;;;;5113474;27;20911;-73
2022/07/24 06:05:43;;;;;;;1999.90;999.90;;;;;;;;;;5115846;27;20710;-73
2022/07/24 06:08:11;;;;;;;1999.90;999.90;;;;;;;;;;5097764;27;20406;-73
2022/07/24 06:10:39;;;;;;;1999.90;999.90;;;;;;;;;;5095207;27;20423;-73
2022/07/24 06:13:07;;;;;;;1999.90;999.90;;;;;;;;;;5116436;27;20989;-73
2022/07/24 06:15:36;;;;;;;1999.90;999.90;;;;;;;;;;5097153;27;20410;-73
2022/07/24 06:18:07;;;;;;;1999.90;999.90;;;;;;;;;;5114274;27;20520;-73
2022/07/24 06:20:35;;;;;;;1999.90;999.90;;;;;;;;;;5129653;27;21264;-73
2022/07/24 06:23:03;;;;;;;1999.90;999.90;;;;;;;;;;5115907;27;20808;-73
2022/07/24 06:25:31;;;;;;;1999.90;999.90;;;;;;;;;;5134567;27;20400;-73
2022/07/24 06:27:58;;;;;;;1999.90;999.90;;;;;;;;;;5134542;27;21237;-74
2022/07/24 06:30:27;;;;;;;1999.90;999.90;;;;;;;;;;5133480;27;20412;-73
2022/07/24 06:32:57;;;;;;;1999.90;999.90;;;;;;;;;;5114244;27;20430;-74
2022/07/24 06:35:25;;;;;;;1999.90;999.90;;;;;;;;;;5130957;27;22264;-74
2022/07/24 06:37:54;;;;;;;1999.90;999.90;;;;;;;;;;5097145;27;20856;-73
2022/07/24 06:40:21;;;;;;;1999.90;999.90;;;;;;;;;;5114472;27;20400;-73
2022/07/24 06:42:50;;;;;;;1999.90;999.90;;;;;;;;;;5116369;27;20480;-74
2022/07/24 06:45:18;;;;;;;1999.90;999.90;;;;;;;;;;5106035;27;20828;-73
2022/07/24 06:47:46;;;;;;;1999.90;999.90;;;;;;;;;;5131809;27;20400;-70
2022/07/24 06:50:15;;;;;;;1999.90;999.90;;;;;;;;;;5131212;27;20494;-70
2022/07/24 06:52:45;;;;;;;1999.90;999.90;;;;;;;;;;5110741;27;20999;-70
2022/07/24 06:55:13;;;;;;;1999.90;999.90;;;;;;;;;;5111524;27;20480;-70
2022/07/24 06:57:40;;;;;;;1999.90;999.90;;;;;;;;;;5128973;27;20411;-70
2022/07/24 07:00:09;;;;;;;1999.90;999.90;;;;;;;;;;5113488;27;20396;-70
2022/07/24 07:02:38;;;;;;;1999.90;999.90;;;;;;;;;;5115386;27;20434;-70
2022/07/24 07:05:07;;;;;;;1999.90;999.90;;;;;;;;;;5115878;27;20894;-70
2022/07/24 07:07:36;;;;;;;1999.90;999.90;;;;;;;;;;5111974;27;20399;-70
2022/07/24 07:10:05;;;;;;;1999.90;999.90;;;;;;;;;;5132814;27;20456;-70
2022/07/24 07:12:34;;;;;;;1999.90;999.90;;;;;;;;;;5135122;27;20892;-70
2022/07/24 07:15:08;;;;;;;1999.90;999.90;;;;;;;;;;5134267;27;20471;-72
2022/07/24 07:17:37;;;;;;;1999.90;999.90;;;;;;;;;;5114225;27;20411;-73
2022/07/24 07:20:05;;;;;;;1999.90;999.90;;;;;;;;;;5132861;27;20395;-73
2022/07/24 07:22:33;;;;;;;1999.90;999.90;;;;;;;;;;5131714;27;20410;-73
2022/07/24 07:25:03;;;;;;;1999.90;999.90;;;;;;;;;;5113852;27;20426;-73
2022/07/24 07:27:31;;;;;;;1999.90;999.90;;;;;;;;;;5132871;27;20396;-77
2022/07/24 07:29:59;;;;;;;1999.90;999.90;;;;;;;;;;5114287;27;20399;-77
2022/07/24 07:32:27;;;;;;;1999.90;999.90;;;;;;;;;;5131404;27;20437;-78
2022/07/24 07:34:55;;;;;;;1999.90;999.90;;;;;;;;;;5102680;27;21360;-76
2022/07/24 07:37:26;;;;;;;1999.90;999.90;;;;;;;;;;5098071;27;20407;-80
2022/07/24 07:39:54;;;;;;;1999.90;999.90;;;;;;;;;;5132988;27;20368;-79
2022/07/24 07:42:27;;;;;;;1999.90;999.90;;;;;;;;;;5101227;27;20421;-81
2022/07/24 07:44:56;;;;;;;1999.90;999.90;;;;;;;;;;5099537;27;20396;-76
2022/07/24 07:47:24;;;;;;;1999.90;999.90;;;;;;;;;;5121082;27;20415;-76
2022/07/24 07:49:53;;;;;;;1999.90;999.90;;;;;;;;;;5105237;27;21541;-79
2022/07/24 07:52:26;;;;;;;1999.90;999.90;;;;;;;;;;5135185;27;21457;-74
2022/07/24 07:54:54;;;;;;;1999.90;999.90;;;;;;;;;;5127198;27;20414;-76
2022/07/24 07:57:22;;;;;;;1999.90;999.90;;;;;;;;;;5107542;27;20922;-72
2022/07/24 08:00:12;;;;;;;1999.90;999.90;;;;;;;;;;5114046;27;20905;-75
2022/07/24 08:02:39;;;;;;;1999.90;999.90;;;;;;;;;;5105835;27;20406;-72
2022/07/24 08:05:08;;;;;;;1999.90;999.90;;;;;;;;;;5115865;27;20399;-73
2022/07/24 08:07:37;;;;;;;1999.90;999.90;;;;;;;;;;5125174;27;21217;-72
2022/07/24 08:10:06;;;;;;;1999.90;999.90;;;;;;;;;;5108174;27;20390;-76
2022/07/24 08:12:38;;;;;;;1999.90;999.90;;;;;;;;;;5125895;27;20399;-76
2022/07/24 08:15:06;;;;;;;1999.90;999.90;;;;;;;;;;5109999;27;20817;-74
2022/07/24 08:17:36;;;;;;;1999.90;999.90;;;;;;;;;;5097988;27;20477;-75
2022/07/24 08:20:04;;;;;;;1999.90;999.90;;;;;;;;;;5113131;27;20509;-75
2022/07/24 08:22:32;;;;;;;1999.90;999.90;;;;;;;;;;5127691;27;20504;-74
2022/07/24 08:25:00;;;;;;;1999.90;999.90;;;;;;;;;;5129184;27;20427;-74
2022/07/24 08:27:28;;;;;;;1999.90;999.90;;;;;;;;;;5134508;27;20495;-74
2022/07/24 08:29:55;;;;;;;1999.90;999.90;;;;;;;;;;5113885;27;20877;-74
2022/07/24 08:32:23;;;;;;;1999.90;999.90;;;;;;;;;;5109360;27;20435;-75
2022/07/24 08:34:52;;;;;;;1999.90;999.90;;;;;;;;;;5136681;27;20505;-74
2022/07/24 08:37:21;;;;;;;1999.90;999.90;;;;;;;;;;5119109;27;20407;-74
2022/07/24 08:39:48;;;;;;;1999.90;999.90;;;;;;;;;;5127590;27;20390;-75
2022/07/24 08:42:16;;;;;;;1999.90;999.90;;;;;;;;;;5104634;27;20930;-75
2022/07/24 08:44:44;;;;;;;1999.90;999.90;;;;;;;;;;5115177;27;20400;-75
2022/07/24 08:47:12;;;;;;;1999.90;999.90;;;;;;;;;;5135876;27;20416;-76
2022/07/24 08:49:40;;;;;;;1999.90;999.90;;;;;;;;;;5140026;27;20398;-75
2022/07/24 08:52:09;;;;;;;1999.90;999.90;;;;;;;;;;5119898;27;20400;-75
2022/07/24 08:54:37;;;;;;;1999.90;999.90;;;;;;;;;;5137500;27;20384;-75
2022/07/24 08:57:05;;;;;;;1999.90;999.90;;;;;;;;;;5118625;27;20400;-75
2022/07/24 08:59:34;;;;;;;1999.90;999.90;;;;;;;;;;5117292;27;20407;-75
2022/07/24 09:02:02;;;;;;;1999.90;999.90;;;;;;;;;;5134099;27;20591;-75
2022/07/24 09:04:37;;;;;;;1999.90;999.90;;;;;;;;;;5115926;27;20408;-75
2022/07/24 09:07:06;;;;;;;1999.90;999.90;;;;;;;;;;5099608;27;20487;-75
2022/07/24 09:09:37;;;;;;;1999.90;999.90;;;;;;;;;;5100424;27;20404;-75
2022/07/24 09:12:09;;;;;;;1999.90;999.90;;;;;;;;;;5127058;27;21263;-74
2022/07/24 09:14:38;;;;;;;1999.90;999.90;;;;;;;;;;5113295;27;22736;-73
2022/07/24 09:17:07;;;;;;;1999.90;999.90;;;;;;;;;;5118420;27;20484;-75
2022/07/24 09:19:48;;;;;;;1999.90;999.90;;;;;;;;;;5112515;27;20980;-75
2022/07/24 09:22:33;;;;;;;1999.90;999.90;;;;;;;;;;5113470;27;20388;-74
2022/07/24 09:25:07;;;;;;;1999.90;999.90;;;;;;;;;;5135236;27;20906;-74
2022/07/24 09:27:35;;;;;;;1999.90;999.90;;;;;;;;;;5117810;27;20412;-74
2022/07/24 09:30:03;;;;;;;1999.90;999.90;;;;;;;;;;5096925;27;20384;-75
2022/07/24 09:32:39;;;;;;;1999.90;999.90;;;;;;;;;;5119055;27;20404;-74
2022/07/24 09:35:07;;;;;;;1999.90;999.90;;;;;;;;;;5135419;27;20416;-74
2022/07/24 09:37:36;;;;;;;1999.90;999.90;;;;;;;;;;5111408;27;20403;-74
2022/07/24 09:40:09;;;;;;;1999.90;999.90;;;;;;;;;;5136307;27;20412;-74
2022/07/24 09:42:40;;;;;;;1999.90;999.90;;;;;;;;;;5117392;27;20479;-74
2022/07/24 09:45:11;;;;;;;1999.90;999.90;;;;;;;;;;5136272;27;20562;-74
2022/07/24 09:47:39;;;;;;;1999.90;999.90;;;;;;;;;;5131071;27;20422;-75
2022/07/24 09:50:12;;;;;;;1999.90;999.90;;;;;;;;;;5111035;27;20476;-75
2022/07/24 09:52:41;;;;;;;1999.90;999.90;;;;;;;;;;5128074;27;20848;-74
2022/07/24 09:55:21;;;;;;;1999.90;999.90;;;;;;;;;;5110589;27;20396;-75
2022/07/24 09:57:49;;;;;;;1999.90;999.90;;;;;;;;;;5121940;27;20933;-75
2022/07/24 10:00:17;;;;;;;1999.90;999.90;;;;;;;;;;5136390;27;20969;-75
2022/07/24 10:02:46;;;;;;;1999.90;999.90;;;;;;;;;;5102072;27;20510;-76
2022/07/24 10:05:15;;;;;;;1999.90;999.90;;;;;;;;;;5130987;27;20458;-75
2022/07/24 10:07:48;;;;;;;1999.90;999.90;;;;;;;;;;5117206;27;20473;-75
2022/07/24 10:10:16;;;;;;;1999.90;999.90;;;;;;;;;;5115638;27;20954;-76
2022/07/24 10:12:47;;;;;;;1999.90;999.90;;;;;;;;;;5117793;27;20403;-76
2022/07/24 10:15:15;;;;;;;1999.90;999.90;;;;;;;;;;5116617;27;20395;-76
2022/07/24 10:18:12;;;;;;;1999.90;999.90;;;;;;;;;;5137936;27;20402;-76
2022/07/24 10:20:41;;;;;;;1999.90;999.90;;;;;;;;;;5119690;27;20380;-77
2022/07/24 10:23:20;;;;;;;1999.90;999.90;;;;;;;;;;5137076;27;20408;-73
2022/07/24 10:25:53;;;;;;;1999.90;999.90;;;;;;;;;;5136037;27;20403;-73
2022/07/24 10:28:31;;;;;;;1999.90;999.90;;;;;;;;;;5115547;27;20908;-73
2022/07/24 10:30:58;;;;;;;1999.90;999.90;;;;;;;;;;5116954;27;20380;-75
2022/07/24 10:33:28;;;;;;;1999.90;999.90;;;;;;;;;;5118798;27;20385;-73
2022/07/24 10:35:58;;;;;;;1999.90;999.90;;;;;;;;;;5117079;27;21634;-74
2022/07/24 10:38:30;;;;;;;1999.90;999.90;;;;;;;;;;5099398;27;20420;-74
2022/07/24 10:41:02;;;;;;;1999.90;999.90;;;;;;;;;;5125841;27;20889;-73
2022/07/24 10:43:31;;;;;;;1999.90;999.90;;;;;;;;;;5114134;27;20871;-74
2022/07/24 10:46:13;;;;;;;1999.90;999.90;;;;;;;;;;5113194;27;20382;-74
2022/07/24 10:48:41;;;;;;;1999.90;999.90;;;;;;;;;;5117602;27;20395;-75
2022/07/24 10:51:18;;;;;;;1999.90;999.90;;;;;;;;;;5135228;27;20391;-75
2022/07/24 10:53:48;;;;;;;1999.90;999.90;;;;;;;;;;5135076;27;20438;-77
2022/07/24 10:56:17;;;;;;;1999.90;999.90;;;;;;;;;;5133977;27;20429;-76
2022/07/24 10:59:03;;;;;;;1999.90;999.90;;;;;;;;;;5117637;27;20403;-76
2022/07/24 11:01:33;;;;;;;1999.90;999.90;;;;;;;;;;5116807;27;20849;-75
2022/07/24 11:04:01;;;;;;;1999.90;999.90;;;;;;;;;;5115716;27;21291;-76
2022/07/24 11:06:40;;;;;;;1999.90;999.90;;;;;;;;;;5117615;27;21071;-76
2022/07/24 11:09:07;;;;;;;1999.90;999.90;;;;;;;;;;5137281;27;20897;-75
2022/07/24 11:11:40;;;;;;;1999.90;999.90;;;;;;;;;;5115734;27;20404;-75
2022/07/24 11:14:12;;;;;;;1999.90;999.90;;;;;;;;;;5134333;27;20482;-77
2022/07/24 11:16:42;;;;;;;1999.90;999.90;;;;;;;;;;5115948;27;20367;-75
2022/07/24 11:19:29;;;;;;;1999.90;999.90;;;;;;;;;;5132202;27;20411;-76
2022/07/24 11:22:07;;;;;;;1999.90;999.90;;;;;;;;;;5131695;27;21753;-75
2022/07/24 11:24:35;;;;;;;1999.90;999.90;;;;;;;;;;5114857;27;20383;-75
2022/07/24 11:27:07;;;;;;;1999.90;999.90;;;;;;;;;;5122588;27;20870;-75
2022/07/24 11:29:36;;;;;;;1999.90;999.90;;;;;;;;;;5115840;27;20890;-75
2022/07/24 11:32:07;;;;;;;1999.90;999.90;;;;;;;;;;5135388;27;20417;-75
2022/07/24 11:34:44;;;;;;;1999.90;999.90;;;;;;;;;;5114747;27;20411;-75
2022/07/24 11:37:12;;;;;;;1999.90;999.90;;;;;;;;;;5131152;27;20415;-75
2022/07/24 11:39:41;;;;;;;1999.90;999.90;;;;;;;;;;5117266;27;21392;-76
2022/07/24 11:42:10;;;;;;;1999.90;999.90;;;;;;;;;;5109944;27;20449;-76
2022/07/24 11:44:40;;;;;;;1999.90;999.90;;;;;;;;;;5133672;27;20437;-75
2022/07/24 11:47:10;;;;;;;1999.90;999.90;;;;;;;;;;5098770;27;20399;-75
2022/07/24 11:49:40;;;;;;;1999.90;999.90;;;;;;;;;;5127410;27;20404;-74
2022/07/24 11:52:08;;;;;;;1999.90;999.90;;;;;;;;;;5113809;27;20460;-75
2022/07/24 11:54:36;;;;;;;1999.90;999.90;;;;;;;;;;5097762;27;21257;-76
2022/07/24 11:57:06;;;;;;;1999.90;999.90;;;;;;;;;;5116112;27;20486;-76
2022/07/24 11:59:34;;;;;;;1999.90;999.90;;;;;;;;;;5103827;27;20936;-76
2022/07/24 12:02:07;;;;;;;1999.90;999.90;;;;;;;;;;5132811;27;20532;-76
2022/07/24 12:04:35;;;;;;;1999.90;999.90;;;;;;;;;;5113892;27;20388;-76
2022/07/24 12:07:06;;;;;;;1999.90;999.90;;;;;;;;;;5130895;27;20482;-76
2022/07/24 12:09:44;;;;;;;1999.90;999.90;;;;;;;;;;5119102;27;20494;-75
2022/07/24 12:12:21;;;;;;;1999.90;999.90;;;;;;;;;;5115289;27;20480;-76
2022/07/24 12:14:51;;;;;;;1999.90;999.90;;;;;;;;;;5115441;27;20525;-75
2022/07/24 12:17:20;;;;;;;1999.90;999.90;;;;;;;;;;5111524;27;20435;-75
2022/07/24 12:19:51;;;;;;;1999.90;999.90;;;;;;;;;;5121602;27;20934;-76
2022/07/24 12:22:21;;;;;;;1999.90;999.90;;;;;;;;;;5101613;27;21467;-75
2022/07/24 12:24:49;;;;;;;1999.90;999.90;;;;;;;;;;5103596;27;20411;-76
2022/07/24 12:27:33;;;;;;;1999.90;999.90;;;;;;;;;;5101639;27;21312;-77
2022/07/24 12:30:01;;;;;;;1999.90;999.90;;;;;;;;;;5124950;27;21069;-76
2022/07/24 12:32:37;;;;;;;1999.90;999.90;;;;;;;;;;5125560;27;20774;-74
2022/07/24 12:35:11;;;;;;;1999.90;999.90;;;;;;;;;;5136303;27;20811;-76
2022/07/24 12:37:42;;;;;;;1999.90;999.90;;;;;;;;;;5134543;27;21576;-80
2022/07/24 12:40:22;;;;;;;1999.90;999.90;;;;;;;;;;5108197;27;20406;-77
2022/07/24 12:42:56;;;;;;;1999.90;999.90;;;;;;;;;;5110048;27;20388;-80
2022/07/24 12:45:24;;;;;;;1999.90;999.90;;;;;;;;;;5094123;27;20502;-79
2022/07/24 12:48:09;;;;;;;1999.90;999.90;;;;;;;;;;5124598;27;21452;-79
2022/07/24 12:50:41;;;;;;;1999.90;999.90;;;;;;;;;;5103290;27;22732;-79
2022/07/24 12:53:26;;;;;;;1999.90;999.90;;;;;;;;;;5119173;27;20401;-78
2022/07/24 12:56:04;;;;;;;1999.90;999.90;;;;;;;;;;5127656;27;20819;-80
2022/07/24 12:58:47;;;;;;;1999.90;999.90;;;;;;;;;;5097587;27;20504;-80
2022/07/24 13:01:18;;;;;;;1999.90;999.90;;;;;;;;;;5110308;27;20469;-79
2022/07/24 13:03:54;;;;;;;1999.90;999.90;;;;;;;;;;5095558;27;20857;-80
2022/07/24 13:06:36;;;;;;;1999.90;999.90;;;;;;;;;;5104931;27;21034;-79
2022/07/24 13:09:05;;;;;;;1999.90;999.90;;;;;;;;;;5113238;27;20841;-80
2022/07/24 13:11:34;;;;;;;1999.90;999.90;;;;;;;;;;5111759;27;20420;-80
2022/07/24 13:14:03;;;;;;;1999.90;999.90;;;;;;;;;;5130007;27;21233;-78
2022/07/24 13:16:36;;;;;;;1999.90;999.90;;;;;;;;;;5096348;27;20444;-79
2022/07/24 13:19:11;;;;;;;1999.90;999.90;;;;;;;;;;5103359;27;20813;-80
2022/07/24 13:21:41;;;;;;;1999.90;999.90;;;;;;;;;;5112778;27;21213;-79
2022/07/24 13:24:10;;;;;;;1999.90;999.90;;;;;;;;;;5116262;27;20411;-83
2022/07/24 13:26:40;;;;;;;1999.90;999.90;;;;;;;;;;5132932;27;20422;-80
2022/07/24 13:29:12;;;;;;;1999.90;999.90;;;;;;;;;;5113937;27;20384;-80
2022/07/24 13:31:40;;;;;;;1999.90;999.90;;;;;;;;;;5113502;27;20404;-81
2022/07/24 13:34:09;;;;;;;1999.90;999.90;;;;;;;;;;5132519;27;20875;-78
2022/07/24 13:36:42;;;;;;;1999.90;999.90;;;;;;;;;;5111428;27;21722;-80
2022/07/24 13:39:14;;;;;;;1999.90;999.90;;;;;;;;;;5095469;27;20407;-81
2022/07/24 13:41:42;;;;;;;1999.90;999.90;;;;;;;;;;5118596;27;20453;-82
2022/07/24 13:44:10;;;;;;;1999.90;999.90;;;;;;;;;;5130467;27;20515;-80
2022/07/24 13:46:38;;;;;;;1999.90;999.90;;;;;;;;;;5129115;27;20657;-80
2022/07/24 13:49:07;;;;;;;1999.90;999.90;;;;;;;;;;5109316;27;20401;-78
2022/07/24 13:51:37;;;;;;;1999.90;999.90;;;;;;;;;;5127364;27;20777;-79
2022/07/24 13:54:05;;;;;;;1999.90;999.90;;;;;;;;;;5108446;27;20529;-78
2022/07/24 13:56:34;;;;;;;1999.90;999.90;;;;;;;;;;5092010;27;20416;-79